Fallsburg, Kentucky
Current Conditions -  °F | °C
As of 10:15 PM on Saturday 20 Dec 2014 (Local Time) from KSJS Reporting Station
Overcast Overcast  
Wind Chill: 33°   Ceiling: 4700
Heat Index: 33°   Visibility: 10mi
Dew Point: 27°   Wind: 0mph
Humidity: 80%   Direction: NA
Pressure: 30.26"   Gusts: NA
Location:  37.9848°N, 82.5857°W
Report Text: KSJS 210315Z AUTO 00000KT 10SM OVC047 00/M03 A3026 RMK AO2 T00031028
Loading
Personal Weather Stations






























Interactive Weather Map New forecast layout! Learn more

10-Day Weather Forecast

Advertisements
Track Severe Weather on mobile